sensor_id;sensor_type;location;lat;lon;timestamp;P1;durP1;ratioP1;P2;durP2;ratioP2
27412;SDS011;14871;52.702;5.230;2024-02-21T00:01:47;30.23;;;5.22;;
27412;SDS011;14871;52.702;5.230;2024-02-21T00:04:12;25.17;;;4.72;;
27412;SDS011;14871;52.702;5.230;2024-02-21T00:06:38;22.85;;;4.47;;
27412;SDS011;14871;52.702;5.230;2024-02-21T00:09:03;23.95;;;4.50;;
27412;SDS011;14871;52.702;5.230;2024-02-21T00:11:31;27.00;;;5.55;;
27412;SDS011;14871;52.702;5.230;2024-02-21T00:13:56;27.83;;;5.25;;
27412;SDS011;14871;52.702;5.230;2024-02-21T00:16:22;20.35;;;4.18;;
27412;SDS011;14871;52.702;5.230;2024-02-21T00:18:47;20.42;;;4.75;;
27412;SDS011;14871;52.702;5.230;2024-02-21T00:21:13;23.05;;;4.53;;
27412;SDS011;14871;52.702;5.230;2024-02-21T00:23:46;25.95;;;4.00;;
27412;SDS011;14871;52.702;5.230;2024-02-21T00:26:12;20.67;;;5.22;;
27412;SDS011;14871;52.702;5.230;2024-02-21T00:28:42;32.95;;;6.13;;
27412;SDS011;14871;52.702;5.230;2024-02-21T00:31:08;26.95;;;4.47;;
27412;SDS011;14871;52.702;5.230;2024-02-21T00:33:34;27.80;;;5.05;;
27412;SDS011;14871;52.702;5.230;2024-02-21T00:35:59;29.95;;;5.65;;
27412;SDS011;14871;52.702;5.230;2024-02-21T00:38:25;27.85;;;5.20;;
27412;SDS011;14871;52.702;5.230;2024-02-21T00:40:51;27.13;;;4.65;;
27412;SDS011;14871;52.702;5.230;2024-02-21T00:43:16;29.25;;;5.50;;
27412;SDS011;14871;52.702;5.230;2024-02-21T00:45:43;22.50;;;5.32;;
27412;SDS011;14871;52.702;5.230;2024-02-21T00:48:09;18.95;;;4.70;;
27412;SDS011;14871;52.702;5.230;2024-02-21T00:50:34;30.88;;;5.18;;
27412;SDS011;14871;52.702;5.230;2024-02-21T00:53:02;23.20;;;4.88;;
27412;SDS011;14871;52.702;5.230;2024-02-21T00:55:28;30.52;;;5.20;;
27412;SDS011;14871;52.702;5.230;2024-02-21T00:57:53;28.70;;;5.15;;
27412;SDS011;14871;52.702;5.230;2024-02-21T01:00:19;28.90;;;5.45;;
27412;SDS011;14871;52.702;5.230;2024-02-21T01:02:45;28.48;;;4.80;;
27412;SDS011;14871;52.702;5.230;2024-02-21T01:05:12;30.48;;;5.53;;
27412;SDS011;14871;52.702;5.230;2024-02-21T01:07:37;30.50;;;5.18;;
27412;SDS011;14871;52.702;5.230;2024-02-21T01:10:03;25.58;;;4.85;;
27412;SDS011;14871;52.702;5.230;2024-02-21T01:12:29;33.83;;;6.00;;
27412;SDS011;14871;52.702;5.230;2024-02-21T01:14:56;33.25;;;5.85;;
27412;SDS011;14871;52.702;5.230;2024-02-21T01:17:22;35.97;;;6.07;;
27412;SDS011;14871;52.702;5.230;2024-02-21T01:19:48;26.92;;;4.55;;
27412;SDS011;14871;52.702;5.230;2024-02-21T01:22:14;27.30;;;4.75;;
27412;SDS011;14871;52.702;5.230;2024-02-21T01:24:41;29.25;;;4.88;;
27412;SDS011;14871;52.702;5.230;2024-02-21T01:27:06;26.73;;;4.90;;
27412;SDS011;14871;52.702;5.230;2024-02-21T01:29:32;30.77;;;5.38;;
27412;SDS011;14871;52.702;5.230;2024-02-21T01:31:58;28.63;;;6.53;;
27412;SDS011;14871;52.702;5.230;2024-02-21T01:34:23;26.42;;;5.60;;
27412;SDS011;14871;52.702;5.230;2024-02-21T01:36:51;28.20;;;4.57;;
27412;SDS011;14871;52.702;5.230;2024-02-21T01:39:17;24.10;;;4.70;;
27412;SDS011;14871;52.702;5.230;2024-02-21T01:41:42;29.73;;;5.47;;
27412;SDS011;14871;52.702;5.230;2024-02-21T01:44:08;22.92;;;4.53;;
27412;SDS011;14871;52.702;5.230;2024-02-21T01:46:34;20.42;;;4.47;;
27412;SDS011;14871;52.702;5.230;2024-02-21T01:49:00;32.47;;;4.80;;
27412;SDS011;14871;52.702;5.230;2024-02-21T01:51:26;26.55;;;4.82;;
27412;SDS011;14871;52.702;5.230;2024-02-21T01:53:52;36.13;;;5.45;;
27412;SDS011;14871;52.702;5.230;2024-02-21T01:56:20;24.38;;;5.15;;
27412;SDS011;14871;52.702;5.230;2024-02-21T01:58:47;20.48;;;4.38;;
27412;SDS011;14871;52.702;5.230;2024-02-21T02:01:14;31.48;;;5.75;;
27412;SDS011;14871;52.702;5.230;2024-02-21T02:03:40;21.73;;;4.53;;
27412;SDS011;14871;52.702;5.230;2024-02-21T02:06:06;27.85;;;6.15;;
27412;SDS011;14871;52.702;5.230;2024-02-21T02:08:31;22.40;;;4.82;;
27412;SDS011;14871;52.702;5.230;2024-02-21T02:10:58;32.25;;;5.65;;
27412;SDS011;14871;52.702;5.230;2024-02-21T02:13:26;31.27;;;5.15;;
27412;SDS011;14871;52.702;5.230;2024-02-21T02:15:51;24.25;;;5.65;;
27412;SDS011;14871;52.702;5.230;2024-02-21T02:18:19;23.67;;;5.30;;
27412;SDS011;14871;52.702;5.230;2024-02-21T02:20:45;31.55;;;5.78;;
27412;SDS011;14871;52.702;5.230;2024-02-21T02:23:25;26.17;;;6.10;;
27412;SDS011;14871;52.702;5.230;2024-02-21T02:25:51;24.60;;;4.65;;
27412;SDS011;14871;52.702;5.230;2024-02-21T02:28:19;26.08;;;5.50;;
27412;SDS011;14871;52.702;5.230;2024-02-21T02:30:45;21.77;;;3.88;;
27412;SDS011;14871;52.702;5.230;2024-02-21T02:33:13;42.67;;;6.07;;
27412;SDS011;14871;52.702;5.230;2024-02-21T02:35:39;28.75;;;5.07;;
27412;SDS011;14871;52.702;5.230;2024-02-21T02:38:05;23.67;;;4.53;;
27412;SDS011;14871;52.702;5.230;2024-02-21T02:40:31;29.02;;;5.38;;
27412;SDS011;14871;52.702;5.230;2024-02-21T02:42:58;26.02;;;5.13;;
27412;SDS011;14871;52.702;5.230;2024-02-21T02:45:24;27.80;;;5.13;;
27412;SDS011;14871;52.702;5.230;2024-02-21T02:47:51;28.35;;;4.63;;
27412;SDS011;14871;52.702;5.230;2024-02-21T02:50:19;21.33;;;5.05;;
27412;SDS011;14871;52.702;5.230;2024-02-21T02:52:45;29.73;;;5.38;;
27412;SDS011;14871;52.702;5.230;2024-02-21T02:55:11;30.13;;;5.32;;
27412;SDS011;14871;52.702;5.230;2024-02-21T02:57:38;31.77;;;6.05;;
27412;SDS011;14871;52.702;5.230;2024-02-21T03:00:05;20.67;;;4.90;;
27412;SDS011;14871;52.702;5.230;2024-02-21T03:02:32;18.38;;;4.30;;
27412;SDS011;14871;52.702;5.230;2024-02-21T03:04:57;30.63;;;5.80;;
27412;SDS011;14871;52.702;5.230;2024-02-21T03:07:24;24.17;;;5.30;;
27412;SDS011;14871;52.702;5.230;2024-02-21T03:09:50;31.65;;;5.30;;
27412;SDS011;14871;52.702;5.230;2024-02-21T03:12:16;27.42;;;5.40;;
27412;SDS011;14871;52.702;5.230;2024-02-21T03:14:52;28.13;;;5.25;;
27412;SDS011;14871;52.702;5.230;2024-02-21T03:17:18;24.45;;;4.93;;
27412;SDS011;14871;52.702;5.230;2024-02-21T03:19:43;24.85;;;4.72;;
27412;SDS011;14871;52.702;5.230;2024-02-21T03:22:09;30.60;;;5.57;;
27412;SDS011;14871;52.702;5.230;2024-02-21T03:24:34;28.40;;;5.47;;
27412;SDS011;14871;52.702;5.230;2024-02-21T03:27:00;28.08;;;5.57;;
27412;SDS011;14871;52.702;5.230;2024-02-21T03:29:30;33.40;;;5.82;;
27412;SDS011;14871;52.702;5.230;2024-02-21T03:31:56;20.25;;;5.28;;
27412;SDS011;14871;52.702;5.230;2024-02-21T03:34:21;30.30;;;6.22;;
27412;SDS011;14871;52.702;5.230;2024-02-21T03:36:47;30.27;;;6.10;;
27412;SDS011;14871;52.702;5.230;2024-02-21T03:39:12;26.35;;;5.57;;
27412;SDS011;14871;52.702;5.230;2024-02-21T03:41:38;28.58;;;5.25;;
27412;SDS011;14871;52.702;5.230;2024-02-21T03:44:05;29.58;;;5.38;;
27412;SDS011;14871;52.702;5.230;2024-02-21T03:46:30;27.73;;;5.82;;
27412;SDS011;14871;52.702;5.230;2024-02-21T03:48:56;34.85;;;5.55;;
27412;SDS011;14871;52.702;5.230;2024-02-21T03:51:22;29.08;;;5.40;;
27412;SDS011;14871;52.702;5.230;2024-02-21T03:53:49;31.63;;;5.45;;
27412;SDS011;14871;52.702;5.230;2024-02-21T03:56:14;31.73;;;5.32;;
27412;SDS011;14871;52.702;5.230;2024-02-21T03:58:40;30.95;;;5.57;;
27412;SDS011;14871;52.702;5.230;2024-02-21T04:01:05;28.27;;;5.32;;
27412;SDS011;14871;52.702;5.230;2024-02-21T04:03:32;30.42;;;4.63;;
27412;SDS011;14871;52.702;5.230;2024-02-21T04:05:59;27.38;;;4.90;;
27412;SDS011;14871;52.702;5.230;2024-02-21T04:08:25;27.23;;;4.85;;
27412;SDS011;14871;52.702;5.230;2024-02-21T04:10:52;28.83;;;5.45;;
27412;SDS011;14871;52.702;5.230;2024-02-21T04:13:17;27.90;;;4.30;;
27412;SDS011;14871;52.702;5.230;2024-02-21T04:15:43;28.42;;;4.30;;
27412;SDS011;14871;52.702;5.230;2024-02-21T04:18:09;28.98;;;4.97;;
27412;SDS011;14871;52.702;5.230;2024-02-21T04:20:34;26.48;;;5.70;;
27412;SDS011;14871;52.702;5.230;2024-02-21T04:23:00;25.33;;;7.13;;
27412;SDS011;14871;52.702;5.230;2024-02-21T04:25:27;33.95;;;8.40;;
27412;SDS011;14871;52.702;5.230;2024-02-21T04:27:53;23.15;;;6.50;;
27412;SDS011;14871;52.702;5.230;2024-02-21T04:30:19;29.77;;;6.70;;
27412;SDS011;14871;52.702;5.230;2024-02-21T04:32:44;33.97;;;6.78;;
27412;SDS011;14871;52.702;5.230;2024-02-21T04:35:10;34.65;;;7.10;;
27412;SDS011;14871;52.702;5.230;2024-02-21T04:37:35;35.28;;;7.43;;
27412;SDS011;14871;52.702;5.230;2024-02-21T04:40:01;30.77;;;6.15;;
27412;SDS011;14871;52.702;5.230;2024-02-21T04:42:27;31.05;;;6.40;;
27412;SDS011;14871;52.702;5.230;2024-02-21T04:44:52;35.28;;;8.30;;
27412;SDS011;14871;52.702;5.230;2024-02-21T04:47:18;49.72;;;12.63;;
27412;SDS011;14871;52.702;5.230;2024-02-21T04:49:48;69.90;;;19.48;;
27412;SDS011;14871;52.702;5.230;2024-02-21T04:52:18;36.60;;;9.27;;
27412;SDS011;14871;52.702;5.230;2024-02-21T04:54:43;34.78;;;7.22;;
27412;SDS011;14871;52.702;5.230;2024-02-21T04:57:09;37.20;;;7.53;;
27412;SDS011;14871;52.702;5.230;2024-02-21T04:59:41;31.38;;;10.27;;
27412;SDS011;14871;52.702;5.230;2024-02-21T05:02:11;43.88;;;10.07;;
27412;SDS011;14871;52.702;5.230;2024-02-21T05:04:36;72.45;;;25.63;;
27412;SDS011;14871;52.702;5.230;2024-02-21T05:07:03;48.53;;;15.45;;
27412;SDS011;14871;52.702;5.230;2024-02-21T05:09:29;61.20;;;25.45;;
27412;SDS011;14871;52.702;5.230;2024-02-21T05:11:55;47.90;;;15.75;;
27412;SDS011;14871;52.702;5.230;2024-02-21T05:14:20;56.33;;;20.58;;
27412;SDS011;14871;52.702;5.230;2024-02-21T05:16:47;48.50;;;14.02;;
27412;SDS011;14871;52.702;5.230;2024-02-21T05:19:12;38.35;;;15.75;;
27412;SDS011;14871;52.702;5.230;2024-02-21T05:21:39;42.15;;;11.93;;
27412;SDS011;14871;52.702;5.230;2024-02-21T05:24:06;45.03;;;11.25;;
27412;SDS011;14871;52.702;5.230;2024-02-21T05:26:32;46.65;;;15.75;;
27412;SDS011;14871;52.702;5.230;2024-02-21T05:28:58;45.33;;;13.23;;
27412;SDS011;14871;52.702;5.230;2024-02-21T05:31:24;39.13;;;11.18;;
27412;SDS011;14871;52.702;5.230;2024-02-21T05:33:50;39.15;;;12.00;;
27412;SDS011;14871;52.702;5.230;2024-02-21T05:36:16;38.63;;;9.60;;
27412;SDS011;14871;52.702;5.230;2024-02-21T05:38:42;89.50;;;36.00;;
27412;SDS011;14871;52.702;5.230;2024-02-21T05:41:08;49.85;;;14.98;;
27412;SDS011;14871;52.702;5.230;2024-02-21T05:43:33;46.88;;;11.60;;
27412;SDS011;14871;52.702;5.230;2024-02-21T05:45:59;71.30;;;27.20;;
27412;SDS011;14871;52.702;5.230;2024-02-21T05:48:25;57.35;;;21.63;;
27412;SDS011;14871;52.702;5.230;2024-02-21T05:50:50;41.42;;;9.20;;
27412;SDS011;14871;52.702;5.230;2024-02-21T05:53:16;32.17;;;7.22;;
27412;SDS011;14871;52.702;5.230;2024-02-21T05:55:43;38.30;;;6.95;;
27412;SDS011;14871;52.702;5.230;2024-02-21T05:58:09;36.65;;;7.28;;
27412;SDS011;14871;52.702;5.230;2024-02-21T06:00:38;26.02;;;6.53;;
27412;SDS011;14871;52.702;5.230;2024-02-21T06:03:04;26.75;;;6.65;;
27412;SDS011;14871;52.702;5.230;2024-02-21T06:05:30;29.90;;;6.50;;
27412;SDS011;14871;52.702;5.230;2024-02-21T06:07:56;29.02;;;6.40;;
27412;SDS011;14871;52.702;5.230;2024-02-21T06:10:22;23.85;;;6.18;;
27412;SDS011;14871;52.702;5.230;2024-02-21T06:12:48;36.42;;;6.10;;
27412;SDS011;14871;52.702;5.230;2024-02-21T06:15:13;23.65;;;5.55;;
27412;SDS011;14871;52.702;5.230;2024-02-21T06:17:39;24.85;;;6.20;;
27412;SDS011;14871;52.702;5.230;2024-02-21T06:20:05;23.58;;;5.40;;
27412;SDS011;14871;52.702;5.230;2024-02-21T06:22:31;34.55;;;8.13;;
27412;SDS011;14871;52.702;5.230;2024-02-21T06:24:57;28.27;;;6.95;;
27412;SDS011;14871;52.702;5.230;2024-02-21T06:27:23;26.73;;;8.75;;
27412;SDS011;14871;52.702;5.230;2024-02-21T06:29:49;33.03;;;15.55;;
27412;SDS011;14871;52.702;5.230;2024-02-21T06:32:15;35.83;;;10.95;;
27412;SDS011;14871;52.702;5.230;2024-02-21T06:34:43;25.50;;;8.82;;
27412;SDS011;14871;52.702;5.230;2024-02-21T06:37:09;18.73;;;7.20;;
27412;SDS011;14871;52.702;5.230;2024-02-21T06:39:35;26.50;;;8.73;;
27412;SDS011;14871;52.702;5.230;2024-02-21T06:42:04;20.40;;;5.85;;
27412;SDS011;14871;52.702;5.230;2024-02-21T06:44:29;21.92;;;6.07;;
27412;SDS011;14871;52.702;5.230;2024-02-21T06:46:57;19.13;;;5.10;;
27412;SDS011;14871;52.702;5.230;2024-02-21T06:49:23;23.10;;;5.60;;
27412;SDS011;14871;52.702;5.230;2024-02-21T06:51:49;16.30;;;5.10;;
27412;SDS011;14871;52.702;5.230;2024-02-21T06:54:15;27.25;;;4.80;;
27412;SDS011;14871;52.702;5.230;2024-02-21T06:56:40;18.38;;;4.95;;
27412;SDS011;14871;52.702;5.230;2024-02-21T06:59:06;23.30;;;5.80;;
27412;SDS011;14871;52.702;5.230;2024-02-21T07:01:32;22.27;;;5.47;;
27412;SDS011;14871;52.702;5.230;2024-02-21T07:03:57;24.13;;;5.43;;
27412;SDS011;14871;52.702;5.230;2024-02-21T07:06:23;21.42;;;5.32;;
27412;SDS011;14871;52.702;5.230;2024-02-21T07:08:49;21.05;;;5.88;;
27412;SDS011;14871;52.702;5.230;2024-02-21T07:11:14;18.52;;;5.57;;
27412;SDS011;14871;52.702;5.230;2024-02-21T07:13:40;26.05;;;5.90;;
27412;SDS011;14871;52.702;5.230;2024-02-21T07:16:06;20.80;;;5.85;;
27412;SDS011;14871;52.702;5.230;2024-02-21T07:18:32;19.55;;;7.32;;
27412;SDS011;14871;52.702;5.230;2024-02-21T07:20:58;26.50;;;6.68;;
27412;SDS011;14871;52.702;5.230;2024-02-21T07:23:24;18.30;;;6.15;;
27412;SDS011;14871;52.702;5.230;2024-02-21T07:25:49;27.48;;;7.03;;
27412;SDS011;14871;52.702;5.230;2024-02-21T07:28:15;24.23;;;7.38;;
27412;SDS011;14871;52.702;5.230;2024-02-21T07:30:42;20.58;;;7.65;;
27412;SDS011;14871;52.702;5.230;2024-02-21T07:33:08;20.42;;;9.18;;
27412;SDS011;14871;52.702;5.230;2024-02-21T07:35:33;24.52;;;11.23;;
27412;SDS011;14871;52.702;5.230;2024-02-21T07:37:59;22.40;;;11.90;;
27412;SDS011;14871;52.702;5.230;2024-02-21T07:40:25;24.35;;;11.27;;
27412;SDS011;14871;52.702;5.230;2024-02-21T07:42:50;30.25;;;14.05;;
27412;SDS011;14871;52.702;5.230;2024-02-21T07:45:16;24.38;;;12.88;;
27412;SDS011;14871;52.702;5.230;2024-02-21T07:47:43;31.52;;;14.68;;
27412;SDS011;14871;52.702;5.230;2024-02-21T07:50:09;29.73;;;15.35;;
27412;SDS011;14871;52.702;5.230;2024-02-21T07:52:35;23.77;;;14.70;;
27412;SDS011;14871;52.702;5.230;2024-02-21T07:55:00;31.20;;;14.73;;
27412;SDS011;14871;52.702;5.230;2024-02-21T07:57:26;27.45;;;14.20;;
27412;SDS011;14871;52.702;5.230;2024-02-21T07:59:51;26.42;;;15.40;;
27412;SDS011;14871;52.702;5.230;2024-02-21T08:02:17;23.55;;;15.18;;
27412;SDS011;14871;52.702;5.230;2024-02-21T08:04:43;29.25;;;16.05;;
27412;SDS011;14871;52.702;5.230;2024-02-21T08:07:09;28.63;;;16.00;;
27412;SDS011;14871;52.702;5.230;2024-02-21T08:09:35;26.85;;;16.05;;
27412;SDS011;14871;52.702;5.230;2024-02-21T08:12:03;26.52;;;15.65;;
27412;SDS011;14871;52.702;5.230;2024-02-21T08:14:29;26.05;;;15.52;;
27412;SDS011;14871;52.702;5.230;2024-02-21T08:16:55;28.58;;;16.40;;
27412;SDS011;14871;52.702;5.230;2024-02-21T08:19:21;28.58;;;15.35;;
27412;SDS011;14871;52.702;5.230;2024-02-21T08:21:47;26.80;;;15.63;;
27412;SDS011;14871;52.702;5.230;2024-02-21T08:24:16;33.00;;;16.92;;
27412;SDS011;14871;52.702;5.230;2024-02-21T08:26:42;27.70;;;13.18;;
27412;SDS011;14871;52.702;5.230;2024-02-21T08:29:09;30.98;;;16.42;;
27412;SDS011;14871;52.702;5.230;2024-02-21T08:31:35;31.75;;;17.30;;
27412;SDS011;14871;52.702;5.230;2024-02-21T08:34:01;30.75;;;17.27;;
27412;SDS011;14871;52.702;5.230;2024-02-21T08:36:29;29.02;;;17.80;;
27412;SDS011;14871;52.702;5.230;2024-02-21T08:38:55;33.65;;;19.13;;
27412;SDS011;14871;52.702;5.230;2024-02-21T08:41:21;29.45;;;17.77;;
27412;SDS011;14871;52.702;5.230;2024-02-21T08:43:49;30.85;;;17.90;;
27412;SDS011;14871;52.702;5.230;2024-02-21T08:46:19;34.25;;;18.63;;
27412;SDS011;14871;52.702;5.230;2024-02-21T08:48:45;30.48;;;17.67;;
27412;SDS011;14871;52.702;5.230;2024-02-21T08:51:13;33.35;;;19.33;;
27412;SDS011;14871;52.702;5.230;2024-02-21T08:53:38;33.08;;;18.50;;
27412;SDS011;14871;52.702;5.230;2024-02-21T08:56:04;28.02;;;17.85;;
27412;SDS011;14871;52.702;5.230;2024-02-21T08:58:32;34.17;;;18.98;;
27412;SDS011;14871;52.702;5.230;2024-02-21T09:00:58;33.55;;;18.30;;
27412;SDS011;14871;52.702;5.230;2024-02-21T09:03:23;36.40;;;19.20;;
27412;SDS011;14871;52.702;5.230;2024-02-21T09:05:50;28.38;;;17.75;;
27412;SDS011;14871;52.702;5.230;2024-02-21T09:08:15;34.40;;;18.42;;
27412;SDS011;14871;52.702;5.230;2024-02-21T09:10:41;33.42;;;18.10;;
27412;SDS011;14871;52.702;5.230;2024-02-21T09:13:07;26.42;;;16.83;;
27412;SDS011;14871;52.702;5.230;2024-02-21T09:15:33;27.75;;;17.45;;
27412;SDS011;14871;52.702;5.230;2024-02-21T09:17:59;24.63;;;15.85;;
27412;SDS011;14871;52.702;5.230;2024-02-21T09:20:25;29.10;;;17.50;;
27412;SDS011;14871;52.702;5.230;2024-02-21T09:22:50;29.77;;;17.80;;
27412;SDS011;14871;52.702;5.230;2024-02-21T09:25:17;31.27;;;16.45;;
27412;SDS011;14871;52.702;5.230;2024-02-21T09:27:43;28.27;;;17.05;;
27412;SDS011;14871;52.702;5.230;2024-02-21T09:30:10;26.83;;;16.48;;
27412;SDS011;14871;52.702;5.230;2024-02-21T09:32:36;26.65;;;15.48;;
27412;SDS011;14871;52.702;5.230;2024-02-21T09:35:02;29.08;;;16.88;;
27412;SDS011;14871;52.702;5.230;2024-02-21T09:37:30;30.90;;;16.85;;
27412;SDS011;14871;52.702;5.230;2024-02-21T09:39:56;25.80;;;18.48;;
27412;SDS011;14871;52.702;5.230;2024-02-21T09:42:21;30.13;;;18.15;;
27412;SDS011;14871;52.702;5.230;2024-02-21T09:44:57;31.85;;;17.27;;
27412;SDS011;14871;52.702;5.230;2024-02-21T09:47:24;29.58;;;18.00;;
27412;SDS011;14871;52.702;5.230;2024-02-21T09:50:04;33.22;;;20.05;;
27412;SDS011;14871;52.702;5.230;2024-02-21T09:52:30;31.73;;;19.55;;
27412;SDS011;14871;52.702;5.230;2024-02-21T09:54:58;32.05;;;19.05;;
27412;SDS011;14871;52.702;5.230;2024-02-21T09:57:24;30.58;;;16.40;;
27412;SDS011;14871;52.702;5.230;2024-02-21T09:59:51;29.13;;;18.02;;
27412;SDS011;14871;52.702;5.230;2024-02-21T10:02:18;28.77;;;19.33;;
27412;SDS011;14871;52.702;5.230;2024-02-21T10:04:45;31.17;;;19.15;;
27412;SDS011;14871;52.702;5.230;2024-02-21T10:07:11;31.27;;;18.77;;
27412;SDS011;14871;52.702;5.230;2024-02-21T10:09:37;23.98;;;17.33;;
27412;SDS011;14871;52.702;5.230;2024-02-21T10:12:09;25.58;;;14.57;;
27412;SDS011;14871;52.702;5.230;2024-02-21T10:14:36;26.80;;;16.27;;
27412;SDS011;14871;52.702;5.230;2024-02-21T10:17:02;24.67;;;16.98;;
27412;SDS011;14871;52.702;5.230;2024-02-21T10:19:34;28.05;;;17.35;;
27412;SDS011;14871;52.702;5.230;2024-02-21T10:22:09;33.03;;;16.92;;
27412;SDS011;14871;52.702;5.230;2024-02-21T10:24:35;30.50;;;17.02;;
27412;SDS011;14871;52.702;5.230;2024-02-21T10:27:06;34.38;;;18.63;;
27412;SDS011;14871;52.702;5.230;2024-02-21T10:29:38;28.35;;;18.60;;
27412;SDS011;14871;52.702;5.230;2024-02-21T10:32:11;34.28;;;20.20;;
27412;SDS011;14871;52.702;5.230;2024-02-21T10:34:39;30.85;;;16.17;;
27412;SDS011;14871;52.702;5.230;2024-02-21T10:37:08;37.78;;;21.63;;
27412;SDS011;14871;52.702;5.230;2024-02-21T10:39:38;34.83;;;21.45;;
27412;SDS011;14871;52.702;5.230;2024-02-21T10:42:05;35.00;;;21.67;;
27412;SDS011;14871;52.702;5.230;2024-02-21T10:44:34;35.22;;;21.92;;
27412;SDS011;14871;52.702;5.230;2024-02-21T10:47:09;39.72;;;21.90;;
27412;SDS011;14871;52.702;5.230;2024-02-21T10:49:39;36.47;;;20.88;;
27412;SDS011;14871;52.702;5.230;2024-02-21T10:52:08;33.47;;;21.13;;
27412;SDS011;14871;52.702;5.230;2024-02-21T10:57:42;30.42;;;20.40;;
27412;SDS011;14871;52.702;5.230;2024-02-21T11:00:09;31.65;;;18.85;;
27412;SDS011;14871;52.702;5.230;2024-02-21T11:02:37;29.35;;;15.93;;
27412;SDS011;14871;52.702;5.230;2024-02-21T11:05:04;29.40;;;17.15;;
27412;SDS011;14871;52.702;5.230;2024-02-21T11:07:33;33.17;;;19.73;;
27412;SDS011;14871;52.702;5.230;2024-02-21T11:10:02;31.88;;;19.35;;
27412;SDS011;14871;52.702;5.230;2024-02-21T11:12:32;26.45;;;15.82;;
27412;SDS011;14871;52.702;5.230;2024-02-21T11:15:05;32.53;;;19.13;;
27412;SDS011;14871;52.702;5.230;2024-02-21T11:17:31;29.52;;;18.48;;
27412;SDS011;14871;52.702;5.230;2024-02-21T11:19:57;25.33;;;15.57;;
27412;SDS011;14871;52.702;5.230;2024-02-21T11:22:24;23.35;;;17.10;;
27412;SDS011;14871;52.702;5.230;2024-02-21T11:24:54;29.02;;;16.88;;
27412;SDS011;14871;52.702;5.230;2024-02-21T11:27:21;23.58;;;16.42;;
27412;SDS011;14871;52.702;5.230;2024-02-21T11:29:56;26.88;;;16.20;;
27412;SDS011;14871;52.702;5.230;2024-02-21T11:32:23;22.77;;;14.90;;
27412;SDS011;14871;52.702;5.230;2024-02-21T11:34:57;21.50;;;14.40;;
27412;SDS011;14871;52.702;5.230;2024-02-21T11:37:27;22.38;;;13.98;;
27412;SDS011;14871;52.702;5.230;2024-02-21T11:39:58;20.23;;;12.00;;
27412;SDS011;14871;52.702;5.230;2024-02-21T11:42:25;24.08;;;13.32;;
27412;SDS011;14871;52.702;5.230;2024-02-21T11:44:52;20.38;;;12.38;;
27412;SDS011;14871;52.702;5.230;2024-02-21T11:47:18;18.52;;;13.57;;
27412;SDS011;14871;52.702;5.230;2024-02-21T11:49:47;22.63;;;13.00;;
27412;SDS011;14871;52.702;5.230;2024-02-21T11:52:16;18.55;;;11.93;;
27412;SDS011;14871;52.702;5.230;2024-02-21T11:54:43;17.00;;;11.18;;
27412;SDS011;14871;52.702;5.230;2024-02-21T11:57:10;18.58;;;10.80;;
27412;SDS011;14871;52.702;5.230;2024-02-21T11:59:40;16.67;;;11.27;;
27412;SDS011;14871;52.702;5.230;2024-02-21T12:02:06;18.20;;;12.00;;
27412;SDS011;14871;52.702;5.230;2024-02-21T12:04:32;21.17;;;12.10;;
27412;SDS011;14871;52.702;5.230;2024-02-21T12:06:58;19.83;;;11.23;;
27412;SDS011;14871;52.702;5.230;2024-02-21T12:09:24;16.23;;;11.38;;
27412;SDS011;14871;52.702;5.230;2024-02-21T12:11:57;17.60;;;11.10;;
27412;SDS011;14871;52.702;5.230;2024-02-21T12:14:24;15.20;;;10.25;;
27412;SDS011;14871;52.702;5.230;2024-02-21T12:16:50;15.85;;;11.18;;
27412;SDS011;14871;52.702;5.230;2024-02-21T12:19:16;15.02;;;10.65;;
27412;SDS011;14871;52.702;5.230;2024-02-21T12:21:42;17.90;;;9.95;;
27412;SDS011;14871;52.702;5.230;2024-02-21T12:24:15;17.02;;;11.45;;
27412;SDS011;14871;52.702;5.230;2024-02-21T12:26:41;13.80;;;10.13;;
27412;SDS011;14871;52.702;5.230;2024-02-21T12:29:08;15.43;;;10.80;;
27412;SDS011;14871;52.702;5.230;2024-02-21T12:31:37;14.18;;;9.57;;
27412;SDS011;14871;52.702;5.230;2024-02-21T12:34:03;15.20;;;10.30;;
27412;SDS011;14871;52.702;5.230;2024-02-21T12:36:30;13.43;;;10.60;;
27412;SDS011;14871;52.702;5.230;2024-02-21T12:38:57;14.02;;;9.73;;
27412;SDS011;14871;52.702;5.230;2024-02-21T12:41:22;15.05;;;10.65;;
27412;SDS011;14871;52.702;5.230;2024-02-21T12:43:50;12.77;;;10.00;;
27412;SDS011;14871;52.702;5.230;2024-02-21T12:46:16;12.88;;;9.40;;
27412;SDS011;14871;52.702;5.230;2024-02-21T12:48:41;13.48;;;10.68;;
27412;SDS011;14871;52.702;5.230;2024-02-21T12:51:07;15.05;;;10.05;;
27412;SDS011;14871;52.702;5.230;2024-02-21T12:53:33;16.23;;;9.68;;
27412;SDS011;14871;52.702;5.230;2024-02-21T12:55:59;14.82;;;10.93;;
27412;SDS011;14871;52.702;5.230;2024-02-21T12:58:25;15.27;;;10.82;;
27412;SDS011;14871;52.702;5.230;2024-02-21T13:00:51;18.60;;;11.52;;
27412;SDS011;14871;52.702;5.230;2024-02-21T13:03:16;14.20;;;10.95;;
27412;SDS011;14871;52.702;5.230;2024-02-21T13:05:42;16.17;;;11.68;;
27412;SDS011;14871;52.702;5.230;2024-02-21T13:08:11;16.58;;;12.18;;
27412;SDS011;14871;52.702;5.230;2024-02-21T13:10:37;16.50;;;11.05;;
27412;SDS011;14871;52.702;5.230;2024-02-21T13:13:03;15.45;;;11.88;;
27412;SDS011;14871;52.702;5.230;2024-02-21T13:15:28;16.55;;;12.10;;
27412;SDS011;14871;52.702;5.230;2024-02-21T13:17:55;16.67;;;12.18;;
27412;SDS011;14871;52.702;5.230;2024-02-21T13:20:22;17.45;;;10.57;;
27412;SDS011;14871;52.702;5.230;2024-02-21T13:22:48;18.42;;;12.27;;
27412;SDS011;14871;52.702;5.230;2024-02-21T13:25:13;18.33;;;12.77;;
27412;SDS011;14871;52.702;5.230;2024-02-21T13:27:45;16.23;;;11.98;;
27412;SDS011;14871;52.702;5.230;2024-02-21T13:30:11;19.80;;;12.32;;
27412;SDS011;14871;52.702;5.230;2024-02-21T13:32:37;18.88;;;11.48;;
27412;SDS011;14871;52.702;5.230;2024-02-21T13:35:03;16.90;;;12.68;;
27412;SDS011;14871;52.702;5.230;2024-02-21T13:37:29;14.77;;;12.05;;
27412;SDS011;14871;52.702;5.230;2024-02-21T13:39:55;19.67;;;12.70;;
27412;SDS011;14871;52.702;5.230;2024-02-21T13:42:21;19.08;;;11.82;;
27412;SDS011;14871;52.702;5.230;2024-02-21T13:44:46;18.33;;;11.90;;
27412;SDS011;14871;52.702;5.230;2024-02-21T13:47:13;17.50;;;13.35;;
27412;SDS011;14871;52.702;5.230;2024-02-21T13:49:40;15.95;;;11.77;;
27412;SDS011;14871;52.702;5.230;2024-02-21T13:52:06;17.67;;;12.02;;
27412;SDS011;14871;52.702;5.230;2024-02-21T13:54:31;17.83;;;12.15;;
27412;SDS011;14871;52.702;5.230;2024-02-21T13:56:57;18.00;;;10.75;;
27412;SDS011;14871;52.702;5.230;2024-02-21T13:59:23;16.15;;;10.07;;
27412;SDS011;14871;52.702;5.230;2024-02-21T14:01:48;13.02;;;11.27;;
27412;SDS011;14871;52.702;5.230;2024-02-21T14:04:14;14.75;;;11.60;;
27412;SDS011;14871;52.702;5.230;2024-02-21T14:06:40;15.48;;;12.15;;
27412;SDS011;14871;52.702;5.230;2024-02-21T14:09:08;13.77;;;9.77;;
27412;SDS011;14871;52.702;5.230;2024-02-21T14:11:34;13.90;;;10.20;;
27412;SDS011;14871;52.702;5.230;2024-02-21T14:14:00;17.25;;;11.43;;
27412;SDS011;14871;52.702;5.230;2024-02-21T14:16:26;17.48;;;10.77;;
27412;SDS011;14871;52.702;5.230;2024-02-21T14:18:52;16.77;;;10.73;;
27412;SDS011;14871;52.702;5.230;2024-02-21T14:21:19;13.88;;;10.68;;
27412;SDS011;14871;52.702;5.230;2024-02-21T14:23:44;17.38;;;10.70;;
27412;SDS011;14871;52.702;5.230;2024-02-21T14:26:10;16.05;;;10.48;;
27412;SDS011;14871;52.702;5.230;2024-02-21T14:28:37;13.52;;;9.50;;